createdAt,value
2019-05-02T00:01:56.744Z,99.90
2019-05-02T00:04:36.991Z,99.90
2019-05-02T00:07:14.559Z,99.90
2019-05-02T00:09:48.503Z,99.90
2019-05-02T00:12:20.770Z,99.90
2019-05-02T00:14:51.417Z,99.90
2019-05-02T00:17:25.732Z,99.90
2019-05-02T00:19:54.646Z,99.90
2019-05-02T00:22:25.272Z,99.90
2019-05-02T00:24:56.809Z,99.90
2019-05-02T00:27:37.676Z,99.90
2019-05-02T00:30:10.461Z,99.90
2019-05-02T00:32:40.945Z,99.90
2019-05-02T00:35:11.538Z,99.90
2019-05-02T00:37:42.433Z,99.90
2019-05-02T00:40:13.302Z,99.90
2019-05-02T00:42:58.330Z,99.90
2019-05-02T00:45:26.066Z,99.90
2019-05-02T00:48:04.392Z,99.90
2019-05-02T00:50:40.712Z,99.90
2019-05-02T00:53:13.519Z,99.90
2019-05-02T00:55:44.067Z,99.90
2019-05-02T00:58:14.678Z,99.90
2019-05-02T01:01:02.777Z,99.90
2019-05-02T01:03:35.046Z,99.90
2019-05-02T01:06:13.646Z,99.90
2019-05-02T01:08:38.184Z,99.90
2019-05-02T01:11:08.859Z,99.90
2019-05-02T01:13:39.396Z,99.90
2019-05-02T01:16:15.146Z,99.90
2019-05-02T01:18:43.445Z,99.90
2019-05-02T01:21:14.001Z,99.90
2019-05-02T01:23:44.449Z,99.90
2019-05-02T01:26:24.156Z,99.90
2019-05-02T01:29:05.225Z,99.90
2019-05-02T01:31:37.274Z,99.90
2019-05-02T01:34:25.845Z,99.90
2019-05-02T01:36:58.058Z,99.90
2019-05-02T01:39:28.593Z,99.90
2019-05-02T01:42:16.609Z,99.90
2019-05-02T01:44:47.057Z,99.90
2019-05-02T01:47:17.652Z,99.90
2019-05-02T01:49:52.088Z,99.90
2019-05-02T01:52:23.780Z,99.90
2019-05-02T01:54:52.608Z,99.90
2019-05-02T01:57:23.098Z,99.90
2019-05-02T01:59:54.398Z,99.90
2019-05-02T02:02:28.009Z,99.90
2019-05-02T02:04:58.071Z,99.90
2019-05-02T02:07:28.543Z,99.90
2019-05-02T02:09:59.099Z,99.90
2019-05-02T02:12:29.822Z,99.90
2019-05-02T02:33:41.120Z,99.90
2019-05-02T02:36:12.166Z,99.90
2019-05-02T02:38:42.925Z,99.90
2019-05-02T02:41:15.104Z,99.90
2019-05-02T02:43:48.332Z,99.90
2019-05-02T02:46:30.857Z,99.90
2019-05-02T02:49:01.533Z,99.90
2019-05-02T02:51:32.015Z,99.90
2019-05-02T02:54:03.753Z,99.90
2019-05-02T02:56:40.547Z,99.90
2019-05-02T02:59:07.172Z,99.90
2019-05-02T03:01:37.713Z,99.90
2019-05-02T03:04:09.801Z,99.90
2019-05-02T03:06:44.816Z,99.90
2019-05-02T03:09:20.538Z,99.90
2019-05-02T03:12:04.739Z,99.90
2019-05-02T03:14:40.932Z,99.90
2019-05-02T03:17:26.544Z,99.90
2019-05-02T03:20:01.009Z,99.90
2019-05-02T03:22:27.362Z,99.90
2019-05-02T03:24:57.976Z,99.90
2019-05-02T03:27:29.866Z,99.90
2019-05-02T03:30:03.244Z,99.90
2019-05-02T03:32:36.362Z,99.90
2019-05-02T03:35:09.821Z,99.90
2019-05-02T03:37:44.689Z,99.90
2019-05-02T03:40:12.669Z,99.90
2019-05-02T03:42:44.808Z,99.90
2019-05-02T03:45:16.497Z,99.90
2019-05-02T03:47:48.724Z,99.90
2019-05-02T03:50:31.363Z,99.90
2019-05-02T03:52:51.684Z,99.90
2019-05-02T03:55:24.057Z,99.90
2019-05-02T03:57:54.999Z,99.90
2019-05-02T04:00:25.539Z,99.90
2019-05-02T04:03:00.852Z,99.90
2019-05-02T04:05:33.850Z,99.90
2019-05-02T04:08:20.042Z,99.90
2019-05-02T04:10:52.922Z,99.90
2019-05-02T04:13:22.473Z,99.90
2019-05-02T04:15:53.102Z,99.90
2019-05-02T04:18:24.326Z,99.90
2019-05-02T04:20:55.211Z,99.90
2019-05-02T04:23:27.503Z,99.90
2019-05-02T04:26:06.738Z,99.90
2019-05-02T04:28:34.757Z,99.90
2019-05-02T04:31:05.637Z,99.90
2019-05-02T04:33:36.583Z,99.90
2019-05-02T04:39:21.606Z,99.90
2019-05-02T04:41:50.727Z,99.90
2019-05-02T04:44:21.287Z,99.90
2019-05-02T04:46:51.862Z,99.90
2019-05-02T04:49:29.783Z,99.90
2019-05-02T04:52:01.591Z,99.90
2019-05-02T04:54:32.208Z,99.90
2019-05-02T04:57:02.369Z,99.90
2019-05-02T04:59:33.457Z,99.90
2019-05-02T05:02:05.353Z,99.90
2019-05-02T05:04:42.477Z,99.90
2019-05-02T05:07:09.268Z,99.90
2019-05-02T05:09:40.549Z,99.90
2019-05-02T05:12:11.349Z,99.90
2019-05-02T05:14:43.207Z,99.90
2019-05-02T05:17:17.955Z,99.90
2019-05-02T05:19:48.712Z,99.90
2019-05-02T05:22:19.416Z,99.90
2019-05-02T05:24:58.258Z,99.90
2019-05-02T05:27:28.919Z,99.90
2019-05-02T05:30:05.782Z,99.90
2019-05-02T05:32:32.324Z,99.90
2019-05-02T05:35:09.031Z,99.90
2019-05-02T05:37:43.264Z,99.90
2019-05-02T05:40:11.909Z,99.90
2019-05-02T05:42:42.496Z,99.90
2019-05-02T05:45:14.002Z,99.90
2019-05-02T05:47:44.838Z,99.90
2019-05-02T05:50:17.657Z,99.90
2019-05-02T05:52:48.333Z,99.90
2019-05-02T05:55:24.076Z,99.90
2019-05-02T05:57:59.714Z,99.90
2019-05-02T06:00:24.017Z,99.90
2019-05-02T06:03:01.416Z,99.90
2019-05-02T06:05:27.686Z,99.90
2019-05-02T06:07:58.289Z,99.90
2019-05-02T06:10:28.694Z,99.90
2019-05-02T06:12:59.226Z,99.90
2019-05-02T06:15:33.919Z,99.90
2019-05-02T06:18:04.749Z,99.90
2019-05-02T06:20:34.278Z,99.90
2019-05-02T06:23:07.264Z,97.70
2019-05-02T06:25:37.693Z,97.00
2019-05-02T06:28:23.007Z,93.80
2019-05-02T06:30:53.416Z,92.10
2019-05-02T06:33:25.886Z,88.20
2019-05-02T06:36:01.125Z,86.20
2019-05-02T06:38:28.346Z,83.00
2019-05-02T06:40:59.740Z,81.20
2019-05-02T06:43:30.314Z,79.40
2019-05-02T06:46:00.845Z,75.60
2019-05-02T06:48:32.769Z,76.20
2019-05-02T06:51:03.391Z,77.60
2019-05-02T06:53:35.170Z,79.70
2019-05-02T06:56:08.026Z,82.70
2019-05-02T06:58:42.097Z,85.00
2019-05-02T07:01:10.777Z,86.70
2019-05-02T07:03:45.904Z,87.30
2019-05-02T07:06:13.787Z,85.60
2019-05-02T07:08:44.378Z,82.00
2019-05-02T07:11:14.995Z,80.60
2019-05-02T07:13:46.427Z,77.10
2019-05-02T07:16:38.962Z,75.70
2019-05-02T07:19:29.175Z,72.50
2019-05-02T07:22:03.817Z,71.60
2019-05-02T07:24:32.677Z,70.50
2019-05-02T07:27:03.496Z,68.80
2019-05-02T07:29:34.161Z,68.30
2019-05-02T07:32:04.748Z,66.60
2019-05-02T07:34:35.332Z,62.60
2019-05-02T07:37:08.357Z,62.10
2019-05-02T07:39:40.964Z,62.00
2019-05-02T07:42:11.553Z,61.20
2019-05-02T07:44:42.282Z,59.10
2019-05-02T07:47:12.839Z,58.70
2019-05-02T07:49:45.561Z,57.80
2019-05-02T07:52:16.026Z,57.10
2019-05-02T07:54:46.613Z,57.30
2019-05-02T07:57:17.166Z,58.80
2019-05-02T07:59:49.763Z,57.00
2019-05-02T08:02:24.635Z,57.40
2019-05-02T08:04:52.371Z,57.60
2019-05-02T08:07:25.876Z,58.40
2019-05-02T08:09:55.241Z,57.20
2019-05-02T08:12:25.876Z,57.00
2019-05-02T08:14:56.523Z,57.90
2019-05-02T08:17:27.171Z,57.30
2019-05-02T08:19:57.705Z,56.70
2019-05-02T08:22:29.503Z,56.10
2019-05-02T08:25:00.160Z,54.80
2019-05-02T08:27:34.753Z,55.90
2019-05-02T08:30:10.470Z,56.10
2019-05-02T08:32:41.117Z,56.20
2019-05-02T08:35:11.937Z,54.30
2019-05-02T08:37:43.075Z,56.90
2019-05-02T08:40:15.112Z,57.00
2019-05-02T08:42:46.501Z,58.60
2019-05-02T08:45:17.464Z,59.40
2019-05-02T08:47:47.914Z,61.30
2019-05-02T08:50:18.697Z,62.30
2019-05-02T08:52:49.258Z,64.10
2019-05-02T08:55:19.845Z,65.20
2019-05-02T08:57:50.435Z,68.00
2019-05-02T09:00:22.341Z,70.40
2019-05-02T09:02:57.037Z,70.10
2019-05-02T09:05:25.248Z,70.00
2019-05-02T09:07:58.686Z,66.50
2019-05-02T09:10:29.266Z,64.90
2019-05-02T09:13:02.673Z,61.90
2019-05-02T09:15:35.322Z,62.10
2019-05-02T09:18:06.922Z,61.50
2019-05-02T09:20:38.322Z,61.50
2019-05-02T09:23:08.872Z,59.30
2019-05-02T09:25:39.463Z,57.90
2019-05-02T09:28:09.997Z,59.60
2019-05-02T09:30:41.934Z,58.70
2019-05-02T09:33:12.696Z,58.70
2019-05-02T09:35:43.365Z,57.70
2019-05-02T09:38:16.327Z,57.50
2019-05-02T09:40:47.130Z,56.20
2019-05-02T09:43:19.790Z,55.20
2019-05-02T09:45:51.997Z,56.60
2019-05-02T09:48:26.748Z,57.40
2019-05-02T09:50:58.132Z,59.20
2019-05-02T09:53:32.313Z,59.10
2019-05-02T09:56:02.282Z,60.90
2019-05-02T09:58:33.157Z,59.50
2019-05-02T10:01:22.467Z,61.40
2019-05-02T10:03:53.343Z,62.60
2019-05-02T10:06:24.086Z,64.30
2019-05-02T10:08:54.989Z,65.10
2019-05-02T10:11:26.336Z,65.10
2019-05-02T10:14:02.441Z,66.70
2019-05-02T10:16:33.279Z,66.40
2019-05-02T10:19:09.575Z,68.00
2019-05-02T10:21:36.445Z,69.70
2019-05-02T10:24:07.061Z,70.40
2019-05-02T10:26:37.623Z,70.90
2019-05-02T10:29:08.257Z,72.90
2019-05-02T10:31:42.101Z,72.00
2019-05-02T10:34:16.190Z,72.20
2019-05-02T10:36:45.564Z,72.70
2019-05-02T10:39:16.484Z,72.40
2019-05-02T10:41:47.060Z,71.90
2019-05-02T10:46:53.406Z,73.00
2019-05-02T10:49:45.802Z,72.80
2019-05-02T10:52:22.878Z,72.30
2019-05-02T10:54:52.833Z,73.10
2019-05-02T10:57:24.136Z,72.50
2019-05-02T10:59:56.261Z,73.30
2019-05-02T11:02:32.757Z,74.70
2019-05-02T11:05:11.990Z,75.30
2019-05-02T11:07:43.184Z,75.70
2019-05-02T11:10:14.192Z,76.50
2019-05-02T11:12:47.146Z,76.20
2019-05-02T11:15:35.798Z,74.00
2019-05-02T11:18:06.544Z,74.70
2019-05-02T11:20:37.272Z,73.70
2019-05-02T11:23:08.091Z,73.80
2019-05-02T11:25:38.656Z,75.10
2019-05-02T11:28:09.245Z,75.00
2019-05-02T11:30:42.003Z,74.10
2019-05-02T11:33:13.587Z,71.40
2019-05-02T11:35:49.191Z,65.10
2019-05-02T11:38:41.395Z,66.20
2019-05-02T11:40:52.634Z,62.80
2019-05-02T11:43:23.148Z,61.30
2019-05-02T11:46:02.526Z,60.80
2019-05-02T11:48:26.683Z,60.00
2019-05-02T11:50:58.140Z,60.60
2019-05-02T11:53:29.657Z,60.70
2019-05-02T11:56:03.719Z,62.50
2019-05-02T11:58:32.718Z,63.50
2019-05-02T12:01:05.421Z,64.50
2019-05-02T12:03:38.302Z,65.00
2019-05-02T12:06:12.726Z,64.70
2019-05-02T12:08:49.064Z,65.70
2019-05-02T12:11:17.721Z,67.00
2019-05-02T12:13:55.060Z,67.20
2019-05-02T12:16:23.842Z,67.40
2019-05-02T12:19:07.916Z,68.30
2019-05-02T12:21:26.932Z,68.30
2019-05-02T12:23:57.895Z,65.50
2019-05-02T12:26:28.997Z,65.40
2019-05-02T12:28:59.628Z,66.60
2019-05-02T12:31:32.660Z,65.60
2019-05-02T12:34:08.147Z,65.60
2019-05-02T12:36:39.027Z,66.40
2019-05-02T12:39:12.488Z,65.50
2019-05-02T12:41:42.652Z,66.30
2019-05-02T12:44:13.551Z,67.10
2019-05-02T12:46:45.675Z,67.60
2019-05-02T12:49:26.967Z,68.70
2019-05-02T12:51:48.844Z,69.70
2019-05-02T12:54:21.858Z,70.50
2019-05-02T12:56:52.948Z,71.30
2019-05-02T12:59:23.751Z,71.70
2019-05-02T13:01:54.854Z,72.20
2019-05-02T13:04:25.339Z,72.40
2019-05-02T13:06:55.917Z,73.20
2019-05-02T13:09:26.993Z,72.10
2019-05-02T13:11:59.494Z,72.70
2019-05-02T13:14:31.886Z,72.90
2019-05-02T13:17:07.408Z,73.10
2019-05-02T13:19:41.620Z,74.40
2019-05-02T13:22:17.204Z,73.00
2019-05-02T13:24:54.084Z,72.20
2019-05-02T13:27:22.838Z,73.80
2019-05-02T13:29:53.741Z,70.70
2019-05-02T13:32:32.159Z,71.50
2019-05-02T13:35:04.713Z,71.70
2019-05-02T13:37:36.228Z,68.70
2019-05-02T13:40:29.263Z,68.00
2019-05-02T13:43:01.813Z,69.20
2019-05-02T13:45:34.491Z,69.00
2019-05-02T13:48:06.699Z,69.80
2019-05-02T13:50:37.384Z,68.20
2019-05-02T13:53:07.962Z,68.50
2019-05-02T13:55:42.928Z,68.90
2019-05-02T13:58:13.527Z,68.10
2019-05-02T14:00:48.325Z,66.70
2019-05-02T14:03:19.822Z,66.60
2019-05-02T14:05:53.831Z,67.70
2019-05-02T14:08:27.601Z,67.20
2019-05-02T14:11:08.803Z,67.40
2019-05-02T14:13:40.294Z,67.80
2019-05-02T14:16:12.191Z,69.00
2019-05-02T14:18:45.960Z,69.50
2019-05-02T14:21:16.566Z,69.00
2019-05-02T14:23:47.208Z,69.20
2019-05-02T14:26:29.676Z,69.80
2019-05-02T14:28:56.149Z,70.50
2019-05-02T14:31:27.282Z,71.60
2019-05-02T14:34:16.975Z,70.00
2019-05-02T14:36:47.569Z,68.60
2019-05-02T14:39:24.162Z,69.40
2019-05-02T14:42:02.103Z,68.10
2019-05-02T14:45:01.231Z,69.70
2019-05-02T14:47:10.107Z,69.90
2019-05-02T14:49:43.177Z,69.90
2019-05-02T14:52:14.972Z,70.40
2019-05-02T14:54:47.925Z,71.10
2019-05-02T14:57:22.915Z,71.70
2019-05-02T14:59:59.069Z,71.90
2019-05-02T15:02:32.760Z,72.90
2019-05-02T15:05:05.075Z,73.90
2019-05-02T15:07:38.428Z,71.60
2019-05-02T15:10:12.617Z,71.30
2019-05-02T15:12:43.367Z,70.40
2019-05-02T15:15:16.067Z,71.20
2019-05-02T15:17:47.050Z,72.00
2019-05-02T15:20:35.794Z,72.10
2019-05-02T15:23:02.586Z,73.10
2019-05-02T15:25:37.538Z,71.80
2019-05-02T15:28:09.710Z,72.00
2019-05-02T15:30:44.829Z,72.00
2019-05-02T15:33:17.046Z,72.40
2019-05-02T15:35:50.015Z,72.00
2019-05-02T15:38:27.255Z,71.80
2019-05-02T15:40:53.824Z,71.80
2019-05-02T15:43:25.194Z,71.80
2019-05-02T15:45:55.874Z,72.30
2019-05-02T15:48:27.701Z,73.60
2019-05-02T15:51:00.256Z,73.30
2019-05-02T15:53:39.052Z,74.10
2019-05-02T15:56:18.611Z,74.30
2019-05-02T15:58:42.524Z,74.70
2019-05-02T16:01:14.900Z,75.30
2019-05-02T16:03:48.679Z,74.10
2019-05-02T16:06:21.866Z,75.40
2019-05-02T16:08:52.068Z,75.00
2019-05-02T16:11:23.282Z,75.00
2019-05-02T16:13:55.796Z,74.90
2019-05-02T16:16:26.014Z,75.10
2019-05-02T16:18:56.491Z,75.30
2019-05-02T16:21:39.042Z,75.90
2019-05-02T16:24:14.956Z,76.80
2019-05-02T16:26:46.995Z,77.20
2019-05-02T16:29:23.730Z,78.00
2019-05-02T16:32:03.516Z,78.10
2019-05-02T16:34:35.492Z,78.30
2019-05-02T16:37:14.986Z,78.60
2019-05-02T16:39:59.840Z,78.80
2019-05-02T16:42:28.981Z,80.10
2019-05-02T16:45:02.731Z,80.20
2019-05-02T16:47:34.872Z,80.00
2019-05-02T16:50:13.284Z,80.40
2019-05-02T16:52:47.206Z,80.10
2019-05-02T16:55:21.072Z,80.50
2019-05-02T16:57:51.771Z,81.20
2019-05-02T17:00:25.730Z,82.00
2019-05-02T17:02:57.131Z,82.00
2019-05-02T17:05:27.695Z,82.90
2019-05-02T17:08:02.121Z,82.70
2019-05-02T17:10:47.331Z,84.20
2019-05-02T17:13:17.890Z,85.30
2019-05-02T17:15:48.512Z,85.50
2019-05-02T17:18:19.314Z,86.60
2019-05-02T17:20:53.497Z,87.00
2019-05-02T17:23:23.102Z,88.30
2019-05-02T17:25:55.508Z,89.00
2019-05-02T17:28:25.978Z,89.70
2019-05-02T17:30:56.504Z,90.40
2019-05-02T17:33:27.977Z,90.70
2019-05-02T17:35:58.569Z,91.20
2019-05-02T17:38:29.396Z,91.40
2019-05-02T17:41:04.658Z,91.90
2019-05-02T17:43:37.368Z,92.30
2019-05-02T17:46:12.693Z,92.80
2019-05-02T17:48:47.804Z,93.60
2019-05-02T17:51:28.310Z,94.30
2019-05-02T17:53:58.784Z,94.70
2019-05-02T17:56:32.695Z,95.60
2019-05-02T17:59:06.192Z,96.40
2019-05-02T18:01:38.777Z,97.70
2019-05-02T18:04:12.695Z,99.00
2019-05-02T18:06:46.840Z,99.90
2019-05-02T18:09:16.184Z,99.90
2019-05-02T18:11:47.341Z,99.90
2019-05-02T18:14:21.184Z,99.90
2019-05-02T18:16:53.680Z,99.90
2019-05-02T18:19:24.515Z,99.90
2019-05-02T18:21:58.167Z,99.90
2019-05-02T18:24:26.965Z,99.90
2019-05-02T18:26:57.526Z,99.90
2019-05-02T18:29:27.958Z,99.90
2019-05-02T18:31:58.427Z,99.90
2019-05-02T18:34:32.320Z,99.90
2019-05-02T18:37:06.252Z,99.90
2019-05-02T18:39:42.614Z,99.90
2019-05-02T18:42:08.306Z,99.90
2019-05-02T18:44:38.913Z,99.90
2019-05-02T18:47:12.585Z,99.90
2019-05-02T18:49:44.718Z,99.90
2019-05-02T18:52:15.630Z,99.90
2019-05-02T18:54:47.474Z,99.90
2019-05-02T18:57:25.988Z,99.90
2019-05-02T18:59:56.556Z,99.90
2019-05-02T19:02:32.735Z,99.90
2019-05-02T19:05:06.145Z,99.90
2019-05-02T19:07:36.755Z,99.90
2019-05-02T19:10:11.931Z,99.90
2019-05-02T19:12:42.034Z,99.90
2019-05-02T19:15:18.457Z,99.90
2019-05-02T19:17:49.199Z,99.90
2019-05-02T19:20:26.703Z,99.90
2019-05-02T19:23:02.766Z,99.90
2019-05-02T19:25:29.990Z,99.90
2019-05-02T19:28:02.804Z,99.90
2019-05-02T19:30:39.079Z,99.90
2019-05-02T19:33:12.817Z,99.90
2019-05-02T19:35:46.862Z,99.90
2019-05-02T19:38:17.108Z,99.90
2019-05-02T19:40:52.868Z,99.90
2019-05-02T19:43:29.345Z,99.90
2019-05-02T19:46:02.216Z,99.90
2019-05-02T19:48:36.904Z,99.90
2019-05-02T19:51:09.944Z,99.90
2019-05-02T19:53:37.871Z,99.90
2019-05-02T19:56:09.457Z,99.90
2019-05-02T19:58:42.631Z,99.90
2019-05-02T20:01:17.430Z,99.90
2019-05-02T20:03:45.340Z,99.90
2019-05-02T20:06:16.641Z,99.90
2019-05-02T20:08:47.428Z,99.90
2019-05-02T20:11:18.435Z,99.90
2019-05-02T20:13:50.386Z,99.90
2019-05-02T20:16:31.891Z,99.90
2019-05-02T20:19:04.538Z,99.90
2019-05-02T20:21:43.062Z,99.90
2019-05-02T20:24:19.509Z,99.90
2019-05-02T20:26:52.396Z,99.90
2019-05-02T20:29:23.421Z,99.90
2019-05-02T20:31:54.086Z,99.90
2019-05-02T20:34:24.649Z,99.90
2019-05-02T20:36:56.385Z,99.90
2019-05-02T20:39:27.339Z,99.90
2019-05-02T20:41:57.901Z,99.90
2019-05-02T20:44:28.450Z,99.90
2019-05-02T20:47:06.003Z,99.90
2019-05-02T20:49:36.634Z,99.90
2019-05-02T20:52:08.966Z,99.90
2019-05-02T20:54:39.921Z,99.90
2019-05-02T20:57:16.273Z,99.90
2019-05-02T20:59:52.326Z,99.90
2019-05-02T21:02:22.701Z,99.90
2019-05-02T21:04:54.603Z,99.90
2019-05-02T21:07:43.972Z,99.90
2019-05-02T21:10:19.161Z,99.90
2019-05-02T21:12:48.999Z,99.90
2019-05-02T21:15:21.615Z,99.90
2019-05-02T21:17:51.929Z,99.90
2019-05-02T21:20:22.599Z,99.90
2019-05-02T21:22:53.256Z,99.90
2019-05-02T21:25:23.972Z,99.90
2019-05-02T21:27:54.630Z,99.90
2019-05-02T21:30:32.274Z,99.90
2019-05-02T21:33:02.716Z,99.90
2019-05-02T21:35:33.127Z,99.90
2019-05-02T21:38:06.457Z,99.90
2019-05-02T21:40:37.079Z,99.90
2019-05-02T21:43:09.163Z,99.90
2019-05-02T21:45:39.660Z,99.90
2019-05-02T21:48:21.905Z,99.90
2019-05-02T21:51:03.620Z,99.90
2019-05-02T21:53:38.352Z,99.90
2019-05-02T21:56:19.399Z,99.90
2019-05-02T21:59:07.662Z,99.90
2019-05-02T22:01:52.109Z,99.90
2019-05-02T22:04:22.542Z,99.90
2019-05-02T22:06:53.718Z,99.90
2019-05-02T22:09:24.887Z,99.90
2019-05-02T22:11:56.959Z,99.90
2019-05-02T22:14:28.608Z,99.90
2019-05-02T22:22:51.931Z,99.90
2019-05-02T22:25:22.526Z,99.90
2019-05-02T22:27:58.231Z,99.90
2019-05-02T22:30:28.790Z,99.90
2019-05-02T22:33:00.138Z,99.90
2019-05-02T22:35:31.428Z,99.90
2019-05-02T22:38:16.032Z,99.90
2019-05-02T22:40:48.313Z,99.90
2019-05-02T22:43:22.181Z,99.90
2019-05-02T22:45:53.223Z,99.90
2019-05-02T22:48:23.753Z,99.90
2019-05-02T22:50:54.355Z,99.90
2019-05-02T22:53:24.873Z,99.90
2019-05-02T22:55:55.419Z,99.90
2019-05-02T22:58:26.154Z,99.90
2019-05-02T23:00:56.693Z,99.90
2019-05-02T23:03:27.909Z,99.90
2019-05-02T23:06:01.752Z,99.90
2019-05-02T23:08:31.211Z,99.90
2019-05-02T23:11:03.514Z,99.90
2019-05-02T23:13:34.369Z,99.90
2019-05-02T23:16:05.414Z,99.90
2019-05-02T23:18:37.619Z,99.90
2019-05-02T23:21:08.624Z,99.90
2019-05-02T23:23:41.952Z,99.90
2019-05-02T23:26:17.042Z,99.90
2019-05-02T23:28:49.286Z,99.90
2019-05-02T23:31:26.918Z,99.90
2019-05-02T23:34:02.096Z,99.90
2019-05-02T23:36:33.622Z,99.90
2019-05-02T23:39:08.737Z,99.90
2019-05-02T23:41:41.880Z,99.90
2019-05-02T23:44:15.615Z,99.90
2019-05-02T23:46:49.256Z,99.90
2019-05-02T23:49:22.034Z,99.90
2019-05-02T23:51:53.103Z,99.90
2019-05-02T23:54:23.616Z,99.90
2019-05-02T23:56:54.244Z,99.90
2019-05-02T23:59:27.786Z,99.90
